Time;durP1;ratioP1;P1;durP2;ratioP2;P2;SDS_P1;SDS_P2;PMS_P1;PMS_P2;Temp;Humidity;BMP_temperature;BMP_pressure;BME280_temperature;BME280_humidity;BME280_pressure;Samples;Min_cycle;Max_cycle;Signal;HPM_P1;HPM_P2
2022/08/10 00:01:20;;;;;;;;;;;;;;;26.35;34.06;99367.44;5032742;28;19916;-77
2022/08/10 00:03:46;;;;;;;;;;;;;;;26.34;34.88;99360.41;5032648;28;20312;-77
2022/08/10 00:06:11;;;;;;;;;;;;;;;26.32;34.00;99356.34;5032426;28;20428;-77
2022/08/10 00:08:37;;;;;;;;;;;;;;;26.32;34.00;99349.03;5032384;28;19905;-77
2022/08/10 00:11:02;;;;;;;;;;;;;;;26.29;34.19;99344.19;5032604;28;20348;-77
2022/08/10 00:13:28;;;;;;;;;;;;;;;26.27;34.16;99340.97;5032842;28;20385;-77
2022/08/10 00:15:53;;;;;;;;;;;;;;;26.27;33.96;99340.97;5032670;28;20381;-77
2022/08/10 00:18:18;;;;;;;;;;;;;;;26.24;34.04;99341.53;5030915;28;20007;-77
2022/08/10 00:20:44;;;;;;;;;;;;;;;26.23;34.37;99350.75;5032270;28;19909;-77
2022/08/10 00:23:09;;;;;;;;;;;;;;;26.14;34.26;99345.16;5032325;28;19909;-77
2022/08/10 00:25:34;;;;;;;;;;;;;;;26.06;34.48;99351.19;5032278;28;19913;-77
2022/08/10 00:28:00;;;;;;;;;;;;;;;26.02;34.22;99350.13;5032196;28;19909;-77
2022/08/10 00:30:25;;;;;;;;;;;;;;;25.98;34.00;99355.28;5032312;28;20396;-77
2022/08/10 00:32:50;;;;;;;;;;;;;;;25.94;34.36;99356.94;5030863;28;19916;-77
2022/08/10 00:35:15;;;;;;;;;;;;;;;25.89;34.93;99350.75;5032220;28;19909;-77
2022/08/10 00:37:41;;;;;;;;;;;;;;;25.88;34.33;99354.56;5032176;28;19920;-77
2022/08/10 00:40:06;;;;;;;;;;;;;;;25.90;34.16;99358.59;5032197;28;19909;-77
2022/08/10 00:42:32;;;;;;;;;;;;;;;25.89;34.00;99358.88;5031954;28;19909;-77
2022/08/10 00:44:57;;;;;;;;;;;;;;;25.88;34.63;99366.19;5030565;28;19909;-77
2022/08/10 00:47:22;;;;;;;;;;;;;;;25.95;34.47;99363.97;5031754;28;19980;-77
2022/08/10 00:49:48;;;;;;;;;;;;;;;25.97;34.71;99363.69;5031896;28;19924;-77
2022/08/10 00:52:14;;;;;;;;;;;;;;;26.01;34.62;99372.03;5031975;28;19909;-77
2022/08/10 00:54:41;;;;;;;;;;;;;;;26.05;34.81;99370.41;5031941;28;19909;-77
2022/08/10 00:57:06;;;;;;;;;;;;;;;26.07;34.03;99365.53;5030439;28;19913;-77
2022/08/10 00:59:32;;;;;;;;;;;;;;;26.08;34.22;99359.81;5031825;28;19909;-77
2022/08/10 01:01:57;;;;;;;;;;;;;;;26.09;34.83;99361.44;5031854;28;19909;-77
2022/08/10 01:04:23;;;;;;;;;;;;;;;26.04;34.98;99369.59;5031723;28;20467;-77
2022/08/10 01:07:07;;;;;;;;;;;;;;;26.05;33.87;99376.63;5030310;28;19909;-77
2022/08/10 01:09:50;;;;;;;;;;;;;;;26.03;34.73;99365.28;5034413;28;20107;-77
2022/08/10 01:12:45;;;;;;;;;;;;;;;26.06;34.85;99362.00;5035819;28;19909;-77
2022/08/10 01:15:10;;;;;;;;;;;;;;;26.08;34.71;99369.84;5025863;28;19994;-77
2022/08/10 01:17:35;;;;;;;;;;;;;;;26.04;34.65;99356.06;5035592;28;20078;-77
2022/08/10 01:20:04;;;;;;;;;;;;;;;26.06;34.59;99374.72;5034452;28;19909;-77
2022/08/10 01:22:29;;;;;;;;;;;;;;;26.08;34.47;99375.25;5035787;28;19908;-77
2022/08/10 01:24:54;;;;;;;;;;;;;;;26.07;34.55;99369.03;5034455;28;19931;-77
2022/08/10 01:27:26;;;;;;;;;;;;;;;26.11;34.52;99377.38;5034212;28;19916;-77
2022/08/10 01:29:56;;;;;;;;;;;;;;;26.13;34.06;99367.91;5035333;28;19912;-77
2022/08/10 01:32:31;;;;;;;;;;;;;;;26.14;34.77;99366.00;5034191;28;20389;-77
2022/08/10 01:35:23;;;;;;;;;;;;;;;26.14;34.86;99366.00;5034156;28;19916;-77
2022/08/10 01:38:11;;;;;;;;;;;;;;;26.12;34.82;99357.34;5031896;28;19913;-77
2022/08/10 01:40:40;;;;;;;;;;;;;;;26.05;35.06;99354.97;5032532;28;19912;-77
2022/08/10 01:43:08;;;;;;;;;;;;;;;26.04;34.83;99349.84;5034107;28;19916;-77
2022/08/10 01:45:35;;;;;;;;;;;;;;;26.05;34.53;99362.28;5035414;28;19909;-77
2022/08/10 01:50:47;;;;;;;;;;;;;;;25.95;35.11;99358.56;5035333;28;19916;-77
2022/08/10 01:53:17;;;;;;;;;;;;;;;25.94;35.08;99356.94;5035198;28;20385;-77
2022/08/10 01:55:43;;;;;;;;;;;;;;;25.94;35.25;99361.53;5035075;28;20392;-77
2022/08/10 01:58:10;;;;;;;;;;;;;;;25.94;35.58;99358.84;5034931;28;19913;-77
2022/08/10 02:00:38;;;;;;;;;;;;;;;25.91;35.27;99357.50;5034910;28;19909;-77
2022/08/10 02:03:05;;;;;;;;;;;;;;;25.87;35.30;99351.03;5034766;28;19909;-77
2022/08/10 02:05:30;;;;;;;;;;;;;;;25.80;35.14;99353.28;5034813;28;20028;-77
2022/08/10 02:07:58;;;;;;;;;;;;;;;25.74;35.77;99354.41;5034905;28;19920;-77
2022/08/10 02:10:25;;;;;;;;;;;;;;;25.71;35.76;99352.25;5033493;28;20351;-77
2022/08/10 02:12:55;;;;;;;;;;;;;;;25.68;35.25;99354.72;5034710;28;19909;-77
2022/08/10 02:15:21;;;;;;;;;;;;;;;25.64;35.48;99347.13;5034719;28;19997;-77
2022/08/10 02:17:51;;;;;;;;;;;;;;;25.57;35.68;99348.53;5033254;28;20008;-77
2022/08/10 02:20:19;;;;;;;;;;;;;;;25.51;36.17;99345.06;5033996;28;19948;-76
2022/08/10 02:22:46;;;;;;;;;;;;;;;25.46;35.59;99342.41;5034667;28;19963;-77
2022/08/10 02:25:12;;;;;;;;;;;;;;;25.38;36.16;99345.69;5033357;28;19908;-77
2022/08/10 02:27:39;;;;;;;;;;;;;;;25.33;35.58;99343.84;5034302;28;19963;-77
2022/08/10 02:30:05;;;;;;;;;;;;;;;25.37;35.66;99340.56;5034254;28;20384;-77
2022/08/10 02:32:31;;;;;;;;;;;;;;;25.36;36.22;99345.16;5033061;28;20063;-77
2022/08/10 02:34:57;;;;;;;;;;;;;;;25.40;34.81;99346.22;5034225;28;19987;-77
2022/08/10 02:37:25;;;;;;;;;;;;;;;25.39;34.89;99346.50;5034411;28;19920;-77
2022/08/10 02:39:50;;;;;;;;;;;;;;;25.37;35.08;99351.38;5034396;28;20031;-77
2022/08/10 02:42:30;;;;;;;;;;;;;;;25.31;36.07;99350.59;5034356;28;19940;-77
2022/08/10 02:45:07;;;;;;;;;;;;;;;25.27;36.25;99349.53;5034282;28;19916;-77
2022/08/10 02:47:51;;;;;;;;;;;;;;;25.30;35.24;99351.69;5034004;28;20002;-77
2022/08/10 02:50:19;;;;;;;;;;;;;;;25.30;35.57;99354.41;5032665;28;19999;-77
2022/08/10 02:52:50;;;;;;;;;;;;;;;25.30;35.79;99355.19;5034152;28;19909;-77
2022/08/10 02:55:19;;;;;;;;;;;;;;;25.31;37.04;99356.81;5033953;28;19917;-77
2022/08/10 02:57:49;;;;;;;;;;;;;;;25.29;35.95;99358.19;5033865;28;19913;-77
2022/08/10 03:00:15;;;;;;;;;;;;;;;25.29;36.48;99361.69;5032542;28;19916;-77
2022/08/10 03:02:42;;;;;;;;;;;;;;;25.28;36.51;99362.78;5033991;28;20305;-77
2022/08/10 03:05:09;;;;;;;;;;;;;;;25.30;36.32;99368.72;5032546;28;19909;-77
2022/08/10 03:07:36;;;;;;;;;;;;;;;25.33;35.59;99372.75;5033445;28;19967;-77
2022/08/10 03:10:04;;;;;;;;;;;;;;;25.32;36.63;99371.94;5033601;28;19909;-77
2022/08/10 03:12:31;;;;;;;;;;;;;;;25.37;36.41;99375.72;5033509;28;19939;-77
2022/08/10 03:14:58;;;;;;;;;;;;;;;25.34;35.78;99382.47;5033724;28;19979;-77
2022/08/10 03:17:24;;;;;;;;;;;;;;;25.30;36.07;99376.81;5033563;28;20637;-77
2022/08/10 03:19:50;;;;;;;;;;;;;;;25.30;36.54;99384.94;5033388;28;19967;-77
2022/08/10 03:22:16;;;;;;;;;;;;;;;25.32;36.47;99377.34;5033346;28;19909;-77
2022/08/10 03:24:42;;;;;;;;;;;;;;;25.33;36.46;99378.97;5033334;28;19909;-77
2022/08/10 03:27:08;;;;;;;;;;;;;;;25.34;36.08;99374.38;5032200;28;19909;-77
2022/08/10 03:29:34;;;;;;;;;;;;;;;25.32;36.45;99382.75;5033352;28;20309;-77
2022/08/10 03:31:59;;;;;;;;;;;;;;;25.30;36.27;99382.22;5032421;28;19913;-77
2022/08/10 03:34:25;;;;;;;;;;;;;;;25.27;36.43;99382.78;5032108;28;19954;-77
2022/08/10 03:36:50;;;;;;;;;;;;;;;25.26;36.80;99389.25;5033220;28;19999;-77
2022/08/10 03:39:16;;;;;;;;;;;;;;;25.27;36.45;99387.38;5031904;28;20389;-77
2022/08/10 03:41:47;;;;;;;;;;;;;;;25.26;36.57;99391.94;5033083;28;19909;-77
2022/08/10 03:44:14;;;;;;;;;;;;;;;25.25;36.55;99397.63;5031810;28;19953;-77
2022/08/10 03:46:40;;;;;;;;;;;;;;;25.26;36.94;99397.34;5032913;28;19964;-77
2022/08/10 03:49:06;;;;;;;;;;;;;;;25.28;36.52;99391.69;5032775;28;20385;-77
2022/08/10 03:51:32;;;;;;;;;;;;;;;25.27;36.38;99395.50;5032864;28;19909;-77
2022/08/10 03:53:57;;;;;;;;;;;;;;;25.24;37.09;99388.72;5031523;28;19909;-77
2022/08/10 03:56:23;;;;;;;;;;;;;;;25.17;36.87;99392.81;5032923;28;19939;-77
2022/08/10 03:58:48;;;;;;;;;;;;;;;25.15;36.99;99389.56;5031432;28;20360;-77
2022/08/10 04:01:14;;;;;;;;;;;;;;;25.15;36.78;99393.06;5031388;28;19909;-77
2022/08/10 04:03:40;;;;;;;;;;;;;;;25.10;36.77;99398.50;5031457;28;20298;-77
2022/08/10 04:06:05;;;;;;;;;;;;;;;25.10;36.68;99389.59;5032664;28;19940;-77
2022/08/10 04:08:31;;;;;;;;;;;;;;;25.10;36.97;99390.41;5032636;28;20354;-77
2022/08/10 04:10:56;;;;;;;;;;;;;;;25.16;37.10;99399.28;5032624;28;19909;-77
2022/08/10 04:13:22;;;;;;;;;;;;;;;25.19;37.52;99406.84;5031106;28;19939;-77
2022/08/10 04:15:48;;;;;;;;;;;;;;;25.25;36.93;99405.72;5032675;28;19909;-77
2022/08/10 04:18:13;;;;;;;;;;;;;;;25.34;36.76;99404.09;5032447;28;19917;-77
2022/08/10 04:20:43;;;;;;;;;;;;;;;25.41;37.01;99410.00;5032343;28;19916;-77
2022/08/10 04:23:13;;;;;;;;;;;;;;;25.49;36.67;99411.31;5032461;28;19909;-77
2022/08/10 04:25:38;;;;;;;;;;;;;;;25.53;36.91;99412.38;5030993;28;19917;-77
2022/08/10 04:28:05;;;;;;;;;;;;;;;25.58;36.81;99413.16;5032345;28;19901;-77
2022/08/10 04:30:31;;;;;;;;;;;;;;;25.62;37.35;99419.63;5032230;28;19952;-77
2022/08/10 04:32:58;;;;;;;;;;;;;;;25.69;37.05;99423.94;5032259;28;19948;-77
2022/08/10 04:35:25;;;;;;;;;;;;;;;25.74;37.35;99430.13;5032194;28;19909;-77
2022/08/10 04:37:52;;;;;;;;;;;;;;;25.78;37.52;99428.47;5032133;28;19996;-77
2022/08/10 04:40:18;;;;;;;;;;;;;;;25.84;36.92;99435.47;5030797;28;20329;-77
2022/08/10 04:42:44;;;;;;;;;;;;;;;25.91;37.27;99438.66;5031959;28;19988;-77
2022/08/10 04:45:11;;;;;;;;;;;;;;;25.96;36.48;99433.22;5031721;28;19936;-77
2022/08/10 04:47:37;;;;;;;;;;;;;;;26.03;36.86;99441.03;5031905;28;20382;-77
2022/08/10 04:50:03;;;;;;;;;;;;;;;26.10;36.66;99440.72;5030512;28;19909;-77
2022/08/10 04:52:28;;;;;;;;;;;;;;;26.11;36.52;99440.44;5030647;28;19956;-77
2022/08/10 04:54:53;;;;;;;;;;;;;;;26.16;37.02;99445.81;5031859;28;19916;-77
2022/08/10 04:57:18;;;;;;;;;;;;;;;26.19;36.12;99437.13;5031823;28;19966;-77
2022/08/10 04:59:44;;;;;;;;;;;;;;;26.23;36.27;99448.19;5030462;28;20370;-77
2022/08/10 05:02:09;;;;;;;;;;;;;;;26.28;36.84;99445.44;5030513;28;19915;-77
2022/08/10 05:04:34;;;;;;;;;;;;;;;26.29;35.99;99438.94;5031830;28;20291;-77
2022/08/10 05:07:00;;;;;;;;;;;;;;;26.32;36.15;99446.50;5031776;28;19909;-77
2022/08/10 05:09:25;;;;;;;;;;;;;;;26.35;36.56;99451.38;5030472;28;19905;-77
2022/08/10 05:11:50;;;;;;;;;;;;;;;26.39;36.24;99451.59;5031495;28;20059;-77
2022/08/10 05:14:15;;;;;;;;;;;;;;;26.42;35.98;99451.84;5031406;28;19913;-77
2022/08/10 05:16:41;;;;;;;;;;;;;;;26.41;36.41;99458.34;5031227;28;20030;-77
2022/08/10 05:19:06;;;;;;;;;;;;;;;26.45;35.89;99447.75;5031537;28;19913;-77
2022/08/10 05:21:31;;;;;;;;;;;;;;;26.47;36.33;99457.22;5031600;28;19976;-77
2022/08/10 05:24:03;;;;;;;;;;;;;;;26.50;36.24;99455.84;5031295;28;20010;-77
2022/08/10 05:26:28;;;;;;;;;;;;;;;26.49;36.58;99446.91;5031374;28;19916;-77
2022/08/10 05:28:53;;;;;;;;;;;;;;;26.48;36.38;99450.72;5031499;28;19901;-77
2022/08/10 05:31:19;;;;;;;;;;;;;;;26.55;36.33;99458.50;5031464;28;19916;-77
2022/08/10 05:33:44;;;;;;;;;;;;;;;26.60;36.88;99456.56;5031426;28;19909;-77
2022/08/10 05:36:09;;;;;;;;;;;;;;;26.59;37.07;99460.34;5030629;28;19917;-77
2022/08/10 05:38:35;;;;;;;;;;;;;;;26.64;36.17;99459.50;5030438;28;20369;-77
2022/08/10 05:41:01;;;;;;;;;;;;;;;26.66;36.62;99465.44;5030680;28;19916;-77
2022/08/10 05:43:27;;;;;;;;;;;;;;;26.73;36.22;99452.34;5029563;28;19913;-77
2022/08/10 05:45:52;;;;;;;;;;;;;;;26.79;36.79;99455.84;5031237;28;19915;-77
2022/08/10 05:48:18;;;;;;;;;;;;;;;26.80;35.84;99463.69;5031497;28;19920;-77
2022/08/10 05:50:43;;;;;;;;;;;;;;;26.78;36.51;99457.75;5031360;28;19913;-77
2022/08/10 05:53:08;;;;;;;;;;;;;;;26.85;36.47;99470.97;5031245;28;19909;-77
2022/08/10 05:55:33;;;;;;;;;;;;;;;26.83;37.00;99463.13;5032000;28;19909;-77
2022/08/10 05:57:59;;;;;;;;;;;;;;;26.91;36.15;99465.19;5034897;28;19921;-77
2022/08/10 06:00:25;;;;;;;;;;;;;;;26.87;36.89;99466.06;5034913;28;20055;-77
2022/08/10 06:02:53;;;;;;;;;;;;;;;26.92;37.23;99469.53;5034853;28;19913;-77
2022/08/10 06:05:22;;;;;;;;;;;;;;;26.92;36.80;99460.59;5034701;28;20012;-77
2022/08/10 06:07:50;;;;;;;;;;;;;;;26.96;36.38;99467.06;5033027;28;19920;-77
2022/08/10 06:10:16;;;;;;;;;;;;;;;26.97;36.60;99468.66;5033330;28;19909;-77
2022/08/10 06:12:43;;;;;;;;;;;;;;;27.01;37.44;99468.94;5034616;28;20395;-77
2022/08/10 06:15:09;;;;;;;;;;;;;;;27.06;38.04;99471.59;5032945;28;19935;-77
2022/08/10 06:17:34;;;;;;;;;;;;;;;27.16;36.73;99461.44;5033448;28;19944;-77
2022/08/10 06:20:00;;;;;;;;;;;;;;;27.26;36.86;99462.41;5033053;28;20366;-77
2022/08/10 06:22:25;;;;;;;;;;;;;;;27.30;36.23;99469.66;5034486;28;19908;-77
2022/08/10 06:24:52;;;;;;;;;;;;;;;27.33;37.63;99466.38;5032839;28;19909;-77
2022/08/10 06:27:18;;;;;;;;;;;;;;;27.32;37.03;99463.94;5034043;28;20360;-77
2022/08/10 06:29:44;;;;;;;;;;;;;;;27.37;37.38;99461.19;5032804;28;19913;-77
2022/08/10 06:32:11;;;;;;;;;;;;;;;27.40;36.61;99461.41;5033929;28;19959;-77
2022/08/10 06:34:38;;;;;;;;;;;;;;;27.48;36.06;99454.53;5033337;28;19913;-77
2022/08/10 06:37:04;;;;;;;;;;;;;;;27.50;36.81;99463.22;5032227;28;19913;-77
2022/08/10 06:39:30;;;;;;;;;;;;;;;27.47;37.46;99461.03;5033142;28;19955;-77
2022/08/10 06:42:00;;;;;;;;;;;;;;;27.45;37.56;99463.25;5031770;28;19963;-77
2022/08/10 06:44:28;;;;;;;;;;;;;;;27.51;37.06;99454.78;5032437;28;19986;-77
2022/08/10 06:46:56;;;;;;;;;;;;;;;27.54;36.78;99459.63;5032858;28;19996;-77
2022/08/10 06:49:22;;;;;;;;;;;;;;;27.64;36.71;99456.00;5032934;28;19952;-77
2022/08/10 06:51:50;;;;;;;;;;;;;;;27.76;37.26;99455.56;5033803;28;19995;-77
2022/08/10 06:54:16;;;;;;;;;;;;;;;27.83;36.32;99445.94;5032001;28;19912;-77
2022/08/10 06:56:43;;;;;;;;;;;;;;;27.92;36.89;99453.44;5032360;28;19948;-77
2022/08/10 06:59:11;;;;;;;;;;;;;;;27.99;35.63;99443.81;5032819;28;19909;-77
2022/08/10 07:01:38;;;;;;;;;;;;;;;28.05;36.20;99450.78;5032325;28;19931;-77
2022/08/10 07:04:07;;;;;;;;;;;;;;;28.03;36.02;99441.31;5033276;28;19916;-76
2022/08/10 07:06:34;;;;;;;;;;;;;;;28.05;36.50;99439.91;5031599;28;19909;-77
2022/08/10 07:09:00;;;;;;;;;;;;;;;28.12;37.03;99443.06;5033348;28;19995;-77
2022/08/10 07:11:27;;;;;;;;;;;;;;;28.24;36.49;99436.38;5033519;28;19916;-77
2022/08/10 07:13:55;;;;;;;;;;;;;;;28.29;36.53;99439.84;5033235;28;19995;-77
2022/08/10 07:16:27;;;;;;;;;;;;;;;28.34;36.66;99437.06;5033238;28;20316;-77
2022/08/10 07:18:52;;;;;;;;;;;;;;;28.41;36.19;99436.66;5033375;28;19913;-77
2022/08/10 07:21:18;;;;;;;;;;;;;;;28.48;36.29;99435.19;5033166;28;19916;-77
2022/08/10 07:23:44;;;;;;;;;;;;;;;28.54;36.56;99443.25;5033123;28;19909;-77
2022/08/10 07:26:12;;;;;;;;;;;;;;;28.62;36.60;99434.41;5033064;28;19909;-77
2022/08/10 07:28:38;;;;;;;;;;;;;;;28.68;36.59;99441.34;5032787;28;19909;-77
2022/08/10 07:31:03;;;;;;;;;;;;;;;28.72;36.48;99437.72;5032659;28;19909;-77
2022/08/10 07:33:29;;;;;;;;;;;;;;;28.70;35.99;99433.69;5032969;28;19909;-77
2022/08/10 07:35:55;;;;;;;;;;;;;;;28.79;35.67;99435.41;5032679;28;19999;-77
2022/08/10 07:38:25;;;;;;;;;;;;;;;28.87;35.52;99433.94;5032512;28;19909;-77
2022/08/10 07:40:51;;;;;;;;;;;;;;;28.97;35.35;99439.19;5032821;28;19920;-77
2022/08/10 07:43:19;;;;;;;;;;;;;;;29.02;36.77;99447.28;5032888;28;19920;-77
2022/08/10 07:45:47;;;;;;;;;;;;;;;29.06;35.95;99436.59;5032153;28;19915;-77
2022/08/10 07:48:17;;;;;;;;;;;;;;;29.07;35.80;99432.78;5030716;28;20360;-77
2022/08/10 07:50:43;;;;;;;;;;;;;;;29.10;35.71;99435.69;5032152;28;20390;-77
2022/08/10 07:53:16;;;;;;;;;;;;;;;29.17;35.90;99437.19;5031006;28;19916;-77
2022/08/10 07:55:42;;;;;;;;;;;;;;;29.24;35.37;99440.31;5031941;28;19909;-77
2022/08/10 07:58:09;;;;;;;;;;;;;;;29.26;35.58;99435.38;5031486;28;19963;-77
2022/08/10 08:00:34;;;;;;;;;;;;;;;29.31;35.50;99444.22;5032102;28;20359;-77
2022/08/10 08:03:01;;;;;;;;;;;;;;;29.40;35.00;99442.41;5032172;28;20004;-77
2022/08/10 08:05:27;;;;;;;;;;;;;;;29.47;35.17;99436.59;5031588;28;19969;-77
2022/08/10 08:07:54;;;;;;;;;;;;;;;29.50;35.13;99432.44;5031789;28;19951;-77
2022/08/10 08:10:22;;;;;;;;;;;;;;;29.47;35.09;99442.03;5029810;28;19912;-77
2022/08/10 08:12:48;;;;;;;;;;;;;;;29.47;35.41;99442.03;5031749;28;19962;-77
2022/08/10 08:15:17;;;;;;;;;;;;;;;29.57;35.58;99430.91;5031498;28;19909;-78
2022/08/10 08:17:43;;;;;;;;;;;;;;;29.73;34.91;99434.94;5031205;28;19921;-78
2022/08/10 08:20:09;;;;;;;;;;;;;;;29.87;34.81;99436.81;5029998;28;19913;-77
2022/08/10 08:22:35;;;;;;;;;;;;;;;30.01;34.96;99432.94;5031834;28;20352;-77
2022/08/10 08:25:01;;;;;;;;;;;;;;;30.11;34.85;99440.06;5031771;28;19995;-77
2022/08/10 08:27:27;;;;;;;;;;;;;;;30.16;34.42;99425.50;5031738;28;20434;-77
2022/08/10 08:29:53;;;;;;;;;;;;;;;30.19;35.16;99436.59;5031741;28;19992;-77
2022/08/10 08:32:24;;;;;;;;;;;;;;;30.24;35.05;99425.56;5031686;28;20480;-77
2022/08/10 08:34:55;;;;;;;;;;;;;;;30.33;34.34;99423.69;5031550;28;19916;-77
2022/08/10 08:37:21;;;;;;;;;;;;;;;30.39;34.41;99426.28;5031473;28;20079;-77
2022/08/10 08:39:47;;;;;;;;;;;;;;;30.41;34.40;99427.59;5031604;28;19909;-77
2022/08/10 08:42:31;;;;;;;;;;;;;;;30.49;33.92;99413.25;5030307;28;19909;-77
2022/08/10 08:45:02;;;;;;;;;;;;;;;30.67;34.48;99423.13;5031638;28;19909;-77
2022/08/10 08:47:47;;;;;;;;;;;;;;;30.83;33.90;99426.25;5030319;28;19924;-77
2022/08/10 08:50:38;;;;;;;;;;;;;;;30.92;33.82;99415.38;5047003;28;19916;-77
2022/08/10 08:53:15;;;;;;;;;;;;;;;30.94;34.00;99411.22;5022317;28;19909;-77
2022/08/10 08:55:43;;;;;;;;;;;;;;;31.14;33.86;99409.81;5030445;28;19909;-77
2022/08/10 08:58:27;;;;;;;;;;;;;;;31.36;33.27;99410.88;5030841;28;19913;-77
2022/08/10 09:01:12;;;;;;;;;;;;;;;31.44;33.25;99405.44;5031439;28;19959;-78
2022/08/10 09:03:56;;;;;;;;;;;;;;;31.68;32.58;99404.16;5031286;28;19963;-77
2022/08/10 09:06:36;;;;;;;;;;;;;;;31.83;32.46;99400.97;5027191;28;19917;-77
2022/08/10 09:09:04;;;;;;;;;;;;;;;32.01;32.01;99404.53;5056255;28;19951;-77
2022/08/10 09:11:40;;;;;;;;;;;;;;;31.57;31.70;99316.34;5026548;28;19909;-78
2022/08/10 09:14:29;;;;;;;;;;;;;;;32.14;31.52;99398.88;5024753;28;19917;-77
2022/08/10 09:17:17;;;;;;;;;;;;;;;32.35;31.38;99403.69;5026082;28;19925;-78
2022/08/10 09:19:54;;;;;;;;;;;;;;;32.51;31.27;99410.22;5029771;28;19943;-78
2022/08/10 09:22:38;;;;;;;;;;;;;;;32.58;31.03;99394.13;5031481;28;19951;-77
2022/08/10 09:25:03;;;;;;;;;;;;;;;32.51;30.80;99397.38;5029812;28;19913;-77
2022/08/10 09:27:33;;;;;;;;;;;;;;;32.54;30.97;99402.19;5030025;28;19979;-77
2022/08/10 09:30:03;;;;;;;;;;;;;;;32.55;31.08;99392.84;5025509;28;19920;-78
2022/08/10 09:32:41;;;;;;;;;;;;;;;32.56;31.07;99396.38;5032167;28;19986;-78
2022/08/10 09:35:24;;;;;;;;;;;;;;;32.42;31.03;99387.59;5031288;28;19943;-77
2022/08/10 09:37:52;;;;;;;;;;;;;;;32.19;31.55;99393.25;5033197;28;19923;-78
2022/08/10 09:40:36;;;;;;;;;;;;;;;32.06;31.50;99390.69;5033473;28;19913;-77
2022/08/10 09:43:05;;;;;;;;;;;;;;;32.04;31.48;99387.50;5033439;28;20382;-77
2022/08/10 09:45:50;;;;;;;;;;;;;;;32.03;31.32;99394.88;5032945;28;20382;-77
2022/08/10 09:48:36;;;;;;;;;;;;;;;31.83;31.43;99390.88;5016947;28;20490;-77
2022/08/10 09:51:14;;;;;;;;;;;;;;;31.80;31.62;99379.78;5029257;28;20000;-77
2022/08/10 09:53:42;;;;;;;;;;;;;;;31.71;31.63;99392.63;5028936;28;19913;-77
2022/08/10 09:56:14;;;;;;;;;;;;;;;31.71;31.60;99382.53;5033273;28;19920;-77
2022/08/10 09:58:59;;;;;;;;;;;;;;;31.72;31.15;99380.59;5033332;28;19983;-77
2022/08/10 10:01:43;;;;;;;;;;;;;;;31.72;31.26;99388.78;5023363;28;19921;-77
2022/08/10 10:04:21;;;;;;;;;;;;;;;31.68;31.54;99383.13;5029972;28;19913;-77
2022/08/10 10:07:03;;;;;;;;;;;;;;;31.64;31.78;99387.63;5031912;28;20369;-77
2022/08/10 10:09:47;;;;;;;;;;;;;;;31.80;31.56;99386.03;5033143;28;19916;-77
2022/08/10 10:12:28;;;;;;;;;;;;;;;31.84;31.26;99380.75;5032309;28;19912;-77
2022/08/10 10:18:04;;;;;;;;;;;;;;;31.88;31.66;99381.69;5027302;28;19924;-77
2022/08/10 10:20:36;;;;;;;;;;;;;;;32.35;31.29;99368.97;5034393;28;20286;-77
2022/08/10 10:23:07;;;;;;;;;;;;;;;33.04;30.05;99381.56;5030068;28;20337;-77
2022/08/10 10:25:33;;;;;;;;;;;;;;;33.64;29.25;99381.19;5034203;28;19920;-77
2022/08/10 10:28:17;;;;;;;;;;;;;;;34.05;28.15;99372.13;5034407;28;19909;-77
2022/08/10 10:31:01;;;;;;;;;;;;;;;34.46;27.23;99367.72;5013250;28;19916;-77
2022/08/10 10:33:29;;;;;;;;;;;;;;;34.58;27.91;99356.75;5029747;28;19967;-77
2022/08/10 10:35:55;;;;;;;;;;;;;;;34.22;27.90;99371.19;5032059;28;19944;-77
2022/08/10 10:38:27;;;;;;;;;;;;;;;34.13;27.97;99359.47;5033876;28;19971;-77
2022/08/10 10:41:05;;;;;;;;;;;;;;;34.47;27.92;99361.06;5027650;28;19963;-77
2022/08/10 10:43:46;;;;;;;;;;;;;;;34.98;26.55;99356.09;5031417;28;20286;-77
2022/08/10 10:46:32;;;;;;;;;;;;;;;35.34;27.18;99358.81;5032725;28;19909;-77
2022/08/10 10:49:14;;;;;;;;;;;;;;;35.61;26.65;99370.16;5029553;28;19919;-77
2022/08/10 10:51:56;;;;;;;;;;;;;;;35.42;26.04;99362.56;5033367;28;19996;-77
2022/08/10 10:54:31;;;;;;;;;;;;;;;35.24;26.85;99351.03;5033641;28;20000;-76
2022/08/10 10:57:14;;;;;;;;;;;;;;;34.99;27.06;99357.69;5033724;28;20123;-76
2022/08/10 10:59:52;;;;;;;;;;;;;;;34.80;26.48;99351.94;5033375;28;19952;-77
2022/08/10 11:02:37;;;;;;;;;;;;;;;35.04;27.07;99357.47;5032331;28;20423;-78
2022/08/10 11:05:21;;;;;;;;;;;;;;;35.60;25.71;99352.09;5033316;28;19932;-77
2022/08/10 11:08:02;;;;;;;;;;;;;;;35.58;26.00;99346.13;5047695;28;19924;-77
2022/08/10 11:10:41;;;;;;;;;;;;;;;35.20;26.54;99363.03;5031789;28;19964;-77
2022/08/10 11:13:25;;;;;;;;;;;;;;;34.72;26.94;99359.94;5032662;28;19967;-77
2022/08/10 11:15:58;;;;;;;;;;;;;;;34.61;26.75;99358.00;5033445;28;19909;-77
2022/08/10 11:18:34;;;;;;;;;;;;;;;34.85;26.84;99349.78;5032715;28;19917;-77
2022/08/10 11:21:08;;;;;;;;;;;;;;;34.92;26.89;99343.72;5033324;28;19944;-77
2022/08/10 11:23:38;;;;;;;;;;;;;;;34.82;26.29;99341.44;5032367;28;19915;-77
2022/08/10 11:26:09;;;;;;;;;;;;;;;34.62;26.85;99349.44;5032861;28;20381;-77
2022/08/10 11:28:41;;;;;;;;;;;;;;;34.58;26.32;99355.94;5033261;28;20007;-77
2022/08/10 11:31:07;;;;;;;;;;;;;;;34.53;26.80;99351.47;5033213;28;20309;-77
2022/08/10 11:33:46;;;;;;;;;;;;;;;34.89;26.19;99358.13;5032511;28;19924;-77
2022/08/10 11:36:19;;;;;;;;;;;;;;;35.22;26.59;99352.50;5030072;28;19944;-77
2022/08/10 11:38:59;;;;;;;;;;;;;;;35.57;25.70;99353.56;5032232;28;19909;-77
2022/08/10 11:41:36;;;;;;;;;;;;;;;35.76;25.49;99347.47;5032682;28;19909;-77
2022/08/10 11:44:07;;;;;;;;;;;;;;;36.13;24.23;99347.28;5032839;28;20313;-77
2022/08/10 11:46:33;;;;;;;;;;;;;;;36.09;24.86;99343.66;5032859;28;19913;-77
2022/08/10 11:48:58;;;;;;;;;;;;;;;36.11;24.51;99353.16;5032647;28;19916;-77
2022/08/10 11:51:28;;;;;;;;;;;;;;;36.12;25.33;99359.44;5032530;28;19909;-77
2022/08/10 11:54:03;;;;;;;;;;;;;;;35.91;25.23;99345.94;5031447;28;19988;-77
2022/08/10 11:56:32;;;;;;;;;;;;;;;35.63;25.62;99348.63;5032434;28;20335;-77
2022/08/10 12:01:43;;;;;;;;;;;;;;;34.96;26.13;99339.97;5032722;28;19916;-77
2022/08/10 12:04:10;;;;;;;;;;;;;;;34.41;26.70;99333.09;5032433;28;19992;-77
2022/08/10 12:06:38;;;;;;;;;;;;;;;34.24;26.88;99340.69;5032483;28;20353;-77
2022/08/10 12:09:04;;;;;;;;;;;;;;;34.20;26.91;99334.28;5032337;28;19996;-77
2022/08/10 12:11:29;;;;;;;;;;;;;;;34.24;26.59;99333.25;5032514;28;19920;-77
2022/08/10 12:14:11;;;;;;;;;;;;;;;34.33;26.96;99323.03;5032349;28;19909;-77
2022/08/10 12:16:38;;;;;;;;;;;;;;;34.49;26.04;99320.41;5032056;28;19916;-77
2022/08/10 12:19:23;;;;;;;;;;;;;;;34.79;25.43;99312.75;5032456;28;19909;-77
2022/08/10 12:21:56;;;;;;;;;;;;;;;35.29;25.34;99326.06;5024259;28;19901;-77
2022/08/10 12:24:44;;;;;;;;;;;;;;;35.37;24.66;99318.06;5032195;28;19920;-77
2022/08/10 12:27:13;;;;;;;;;;;;;;;35.23;25.68;99319.22;5029060;28;19909;-77
2022/08/10 12:29:45;;;;;;;;;;;;;;;34.94;25.42;99311.28;5031933;28;19909;-77
2022/08/10 12:32:18;;;;;;;;;;;;;;;34.68;25.82;99309.66;5031891;28;19905;-77
2022/08/10 12:34:59;;;;;;;;;;;;;;;34.33;26.66;99322.22;5031813;28;19963;-77
2022/08/10 12:37:30;;;;;;;;;;;;;;;34.17;26.81;99327.50;5031891;28;19920;-77
2022/08/10 12:40:07;;;;;;;;;;;;;;;34.08;27.13;99316.66;5031784;28;19978;-77
2022/08/10 12:42:38;;;;;;;;;;;;;;;34.33;26.94;99320.28;5031789;28;19909;-77
2022/08/10 12:45:32;;;;;;;;;;;;;;;34.85;26.07;99318.81;5031695;28;19916;-77
2022/08/10 12:48:02;;;;;;;;;;;;;;;35.36;25.11;99320.03;5031685;28;19909;-77
2022/08/10 12:50:27;;;;;;;;;;;;;;;35.66;24.67;99304.78;5031807;28;20373;-77
2022/08/10 12:52:59;;;;;;;;;;;;;;;36.03;24.70;99301.09;5031585;28;19913;-77
2022/08/10 12:55:25;;;;;;;;;;;;;;;36.29;24.33;99299.44;5032071;28;19995;-77
2022/08/10 12:57:52;;;;;;;;;;;;;;;36.50;24.16;99298.38;5031528;28;20487;-77
2022/08/10 13:00:18;;;;;;;;;;;;;;;36.68;23.82;99296.06;5031557;28;19948;-77
2022/08/10 13:02:44;;;;;;;;;;;;;;;36.68;24.35;99296.06;5031607;28;19953;-77
2022/08/10 13:05:10;;;;;;;;;;;;;;;36.74;23.51;99291.88;5031538;28;20440;-77
2022/08/10 13:07:45;;;;;;;;;;;;;;;36.76;23.60;99278.56;5030362;28;19919;-78
2022/08/10 13:10:12;;;;;;;;;;;;;;;36.80;24.15;99291.25;5031561;28;20373;-77